Pagrindinis puslapis
METAR-TAF:

METAR-TAF

Oro uostai :

Salvadoras, Salvadoras

platuma: 13-26N, ilguma: 089-03W, Aukštis: 25 m

Dabartinis oras

Ataskaita buvo paskelbta 33 minutes, ne 15:50 UTC
Vėjas 10 kt iš Šiaurės/Šiaurės Rytų
Temperatūra 30°C
Drėgmė 49%
Slėgis 1014 hPa
Matomumas 10 km arba daugiau
nėra debesų žemiau 1500 m ir nėra kamuolinių lietaus debesų

METAR: MSLP COR 201550Z 03010KT CAVOK 30/18 Q1014 A2994 NOSIG

Laikas: 10:23 (16:23 UTC)

Prognozė

Ataskaita buvo paskelbta 6 valandos ir 58 minutes, ne 09:25 UTC
Prognozė galioja nuo 20 metu 12 UTC su 21 metu 12 UTC
Vėjas 4 kt iš Rytų/Šiaurės Rytų
Matomumas 10 km arba daugiau
nėra debesų žemiau 1500 m ir nėra kamuolinių lietaus debesų
Nuo 20 metu 1800 UTC
Vėjas 6 kt iš Pietų/Pietvakarių
Matomumas 10 km arba daugiau
Mažai debesys ne aukštis 6000 ft
Nuo 21 metu 0000 UTC
Vėjas 5 kt iš Šiaurės Rytų
Matomumas 10 km arba daugiau
nėra debesų žemiau 1500 m ir nėra kamuolinių lietaus debesų

TAF: MSLP 200925Z 2012/2112 07004KT CAVOK TX33/2018Z TN21/2012Z FM201800 20006KT 9999 FEW060 FM210000 04005KT CAVOK

Orai ataskaitas ir orų prognozės (METAR, TAF).

turimą stotys yra geltonos ir raudonos taškus žemėlapyje.

Perkelti pele per norėdami pamatyti stoties vardą.

Tada spustelėkite, norėdami matyti oro stebėjimo ir prognozės.

Norėdami pakeisti žemėlapį: spustelėkite ant žalios mygtukų su juodo kryžiaus žemyn,; žalią mygtuką su brūkšneliu, jei norite nutolinti; arba žalių rodyklių gretimoms žemėlapius.


METAR-TAF: